createdAt,value
2018-09-29T00:00:16.031Z,2.65
2018-09-29T00:02:51.589Z,2.65
2018-09-29T00:05:26.945Z,3.30
2018-09-29T00:08:02.384Z,2.85
2018-09-29T00:10:37.920Z,3.62
2018-09-29T00:13:13.349Z,3.27
2018-09-29T00:15:48.773Z,2.90
2018-09-29T00:18:24.300Z,2.70
2018-09-29T00:21:00.060Z,2.77
2018-09-29T00:23:35.546Z,2.72
2018-09-29T00:26:11.056Z,2.98
2018-09-29T00:28:46.654Z,2.70
2018-09-29T00:31:22.041Z,3.40
2018-09-29T00:33:57.542Z,3.30
2018-09-29T00:36:33.098Z,2.72
2018-09-29T00:39:09.220Z,2.65
2018-09-29T00:41:44.604Z,2.80
2018-09-29T00:44:19.982Z,2.90
2018-09-29T00:46:55.558Z,2.75
2018-09-29T00:49:31.040Z,2.35
2018-09-29T00:52:06.745Z,2.80
2018-09-29T00:54:42.523Z,2.60
2018-09-29T00:57:18.073Z,2.67
2018-09-29T00:59:53.724Z,2.85
2018-09-29T01:02:29.082Z,3.00
2018-09-29T01:05:04.527Z,2.90
2018-09-29T01:07:39.945Z,2.42
2018-09-29T01:10:15.134Z,3.42
2018-09-29T01:12:50.574Z,2.65
2018-09-29T01:15:26.001Z,2.70
2018-09-29T01:18:01.510Z,2.92
2018-09-29T01:20:37.168Z,2.80
2018-09-29T01:23:12.560Z,2.92
2018-09-29T01:25:48.057Z,2.92
2018-09-29T01:28:23.522Z,2.60
2018-09-29T01:30:59.076Z,3.58
2018-09-29T01:33:34.801Z,2.72
2018-09-29T01:36:10.252Z,2.70
2018-09-29T01:38:45.654Z,2.62
2018-09-29T01:41:21.344Z,3.80
2018-09-29T01:43:56.930Z,2.85
2018-09-29T01:46:32.290Z,2.87
2018-09-29T01:49:07.725Z,3.40
2018-09-29T01:51:43.206Z,3.65
2018-09-29T01:54:18.631Z,3.02
2018-09-29T01:56:54.273Z,3.35
2018-09-29T01:59:29.722Z,3.30
2018-09-29T02:02:05.209Z,3.22
2018-09-29T02:04:40.597Z,2.70
2018-09-29T02:07:15.922Z,2.85
2018-09-29T02:09:52.006Z,4.37
2018-09-29T02:12:27.302Z,3.30
2018-09-29T02:15:03.040Z,3.15
2018-09-29T02:17:38.480Z,3.00
2018-09-29T02:20:14.161Z,3.00
2018-09-29T02:22:49.624Z,2.50
2018-09-29T02:25:25.348Z,3.00
2018-09-29T02:28:00.838Z,3.40
2018-09-29T02:30:36.279Z,3.50
2018-09-29T02:33:11.819Z,3.20
2018-09-29T02:35:47.301Z,3.25
2018-09-29T02:38:29.021Z,3.10
2018-09-29T02:41:05.181Z,3.15
2018-09-29T02:43:40.629Z,3.10
2018-09-29T02:46:16.177Z,3.15
2018-09-29T02:48:51.554Z,3.20
2018-09-29T02:51:27.114Z,3.30
2018-09-29T02:54:02.657Z,3.12
2018-09-29T02:56:38.177Z,3.67
2018-09-29T02:59:13.621Z,3.47
2018-09-29T03:01:49.127Z,2.72
2018-09-29T03:04:24.650Z,3.27
2018-09-29T03:07:00.468Z,3.85
2018-09-29T03:09:35.950Z,3.40
2018-09-29T03:12:11.329Z,3.37
2018-09-29T03:14:46.712Z,3.00
2018-09-29T03:17:22.237Z,3.75
2018-09-29T03:19:57.657Z,3.60
2018-09-29T03:22:33.057Z,3.08
2018-09-29T03:25:08.269Z,3.90
2018-09-29T03:27:43.698Z,3.60
2018-09-29T03:30:18.978Z,2.87
2018-09-29T03:32:54.407Z,3.35
2018-09-29T03:35:30.024Z,3.10
2018-09-29T03:38:05.788Z,3.25
2018-09-29T03:40:41.248Z,3.47
2018-09-29T03:43:17.018Z,3.02
2018-09-29T03:45:52.537Z,3.17
2018-09-29T03:48:28.017Z,3.17
2018-09-29T03:51:03.453Z,2.83
2018-09-29T03:53:39.066Z,3.05
2018-09-29T03:56:14.538Z,3.42
2018-09-29T03:58:49.993Z,3.12
2018-09-29T04:01:25.527Z,3.35
2018-09-29T04:04:00.940Z,3.15
2018-09-29T04:06:36.284Z,4.08
2018-09-29T04:09:11.739Z,3.08
2018-09-29T04:11:47.051Z,3.85
2018-09-29T04:14:22.580Z,3.30
2018-09-29T04:16:58.029Z,3.70
2018-09-29T04:19:33.485Z,3.50
2018-09-29T04:22:08.977Z,3.27
2018-09-29T04:24:44.368Z,3.47
2018-09-29T04:27:19.805Z,3.10
2018-09-29T04:29:55.192Z,3.52
2018-09-29T04:32:30.832Z,3.58
2018-09-29T04:35:06.453Z,3.75
2018-09-29T04:37:41.848Z,3.58
2018-09-29T04:40:17.419Z,3.35
2018-09-29T04:42:52.813Z,3.00
2018-09-29T04:45:28.233Z,3.60
2018-09-29T04:48:03.585Z,3.58
2018-09-29T04:50:39.060Z,3.08
2018-09-29T04:53:14.441Z,2.90
2018-09-29T04:55:50.026Z,2.85
2018-09-29T04:58:25.461Z,3.15
2018-09-29T05:01:01.061Z,2.95
2018-09-29T05:03:36.488Z,3.10
2018-09-29T05:06:12.069Z,3.05
2018-09-29T05:08:47.352Z,2.85
2018-09-29T05:11:22.706Z,2.85
2018-09-29T05:13:58.045Z,3.02
2018-09-29T05:16:33.625Z,3.22
2018-09-29T05:19:09.141Z,3.60
2018-09-29T05:21:44.552Z,3.15
2018-09-29T05:24:20.037Z,2.80
2018-09-29T05:26:55.699Z,3.22
2018-09-29T05:29:31.034Z,3.22
2018-09-29T05:32:06.735Z,3.00
2018-09-29T05:34:42.055Z,3.55
2018-09-29T05:37:17.710Z,3.83
2018-09-29T05:39:53.197Z,2.45
2018-09-29T05:42:28.712Z,2.85
2018-09-29T05:45:04.021Z,2.67
2018-09-29T05:47:39.628Z,2.90
2018-09-29T05:50:15.056Z,2.90
2018-09-29T05:52:51.218Z,3.00
2018-09-29T05:55:26.724Z,2.80
2018-09-29T05:58:02.181Z,3.00
2018-09-29T06:00:37.672Z,2.90
2018-09-29T06:03:13.297Z,3.02
2018-09-29T06:05:48.807Z,2.95
2018-09-29T06:08:24.199Z,2.90
2018-09-29T06:10:59.627Z,2.90
2018-09-29T06:13:35.216Z,3.45
2018-09-29T06:16:10.449Z,3.02
2018-09-29T06:18:46.000Z,2.55
2018-09-29T06:21:28.152Z,2.95
2018-09-29T06:24:03.607Z,2.47
2018-09-29T06:26:38.870Z,2.90
2018-09-29T06:29:14.384Z,2.62
2018-09-29T06:31:49.701Z,2.30
2018-09-29T06:34:25.057Z,2.10
2018-09-29T06:37:00.557Z,2.52
2018-09-29T06:39:35.959Z,2.60
2018-09-29T06:42:11.385Z,2.87
2018-09-29T06:44:46.956Z,3.30
2018-09-29T06:47:22.302Z,2.62
2018-09-29T06:49:58.077Z,2.85
2018-09-29T06:52:33.694Z,2.83
2018-09-29T06:55:09.387Z,3.00
2018-09-29T06:57:44.926Z,2.80
2018-09-29T07:00:20.619Z,3.50
2018-09-29T07:02:56.126Z,2.83
2018-09-29T07:13:15.947Z,2.60
2018-09-29T07:44:15.069Z,2.35
2018-09-29T07:46:50.552Z,2.90
2018-09-29T07:49:26.039Z,3.00
2018-09-29T07:52:01.687Z,2.95
2018-09-29T07:54:36.962Z,2.70
2018-09-29T07:57:12.957Z,3.25
2018-09-29T07:59:48.401Z,2.55
2018-09-29T08:02:24.019Z,2.85
2018-09-29T08:04:59.173Z,1.85
2018-09-29T08:07:34.612Z,1.98
2018-09-29T08:10:09.746Z,2.50
2018-09-29T08:12:45.103Z,2.15
2018-09-29T08:15:20.540Z,3.00
2018-09-29T08:17:56.209Z,2.70
2018-09-29T08:20:31.691Z,4.20
2018-09-29T08:23:07.299Z,2.80
2018-09-29T08:25:42.761Z,3.00
2018-09-29T08:28:18.234Z,2.65
2018-09-29T08:30:53.561Z,5.30
2018-09-29T08:33:29.176Z,3.92
2018-09-29T08:36:04.657Z,2.33
2018-09-29T08:38:40.058Z,2.55
2018-09-29T08:41:15.523Z,3.55
2018-09-29T08:43:51.053Z,2.70
2018-09-29T08:46:26.540Z,4.00
2018-09-29T08:49:02.101Z,2.75
2018-09-29T08:51:37.339Z,2.77
2018-09-29T08:54:12.721Z,3.00
2018-09-29T08:56:48.350Z,2.15
2018-09-29T08:59:23.950Z,3.40
2018-09-29T09:01:59.301Z,2.65
2018-09-29T09:04:34.755Z,3.02
2018-09-29T09:07:09.968Z,3.05
2018-09-29T09:09:45.574Z,3.00
2018-09-29T09:12:20.913Z,2.87
2018-09-29T09:14:56.369Z,2.40
2018-09-29T09:17:31.854Z,3.30
2018-09-29T09:20:07.663Z,2.60
2018-09-29T09:22:43.062Z,3.10
2018-09-29T09:25:18.697Z,2.60
2018-09-29T09:27:54.252Z,2.65
2018-09-29T09:30:29.916Z,2.80
2018-09-29T09:33:05.321Z,2.20
2018-09-29T09:35:40.886Z,2.55
2018-09-29T09:38:16.436Z,2.30
2018-09-29T09:40:52.048Z,2.02
2018-09-29T09:43:27.475Z,2.60
2018-09-29T09:46:02.795Z,2.47
2018-09-29T09:48:38.344Z,2.17
2018-09-29T09:51:14.028Z,2.00
2018-09-29T09:53:49.444Z,2.12
2018-09-29T09:56:25.040Z,2.15
2018-09-29T09:59:00.510Z,2.00
2018-09-29T10:01:41.226Z,2.58
2018-09-29T10:04:16.637Z,2.37
2018-09-29T10:06:52.100Z,3.02
2018-09-29T10:09:27.381Z,2.60
2018-09-29T10:12:02.785Z,3.30
2018-09-29T10:14:38.249Z,2.60
2018-09-29T10:17:13.693Z,2.50
2018-09-29T10:19:49.134Z,3.00
2018-09-29T10:22:24.613Z,2.55
2018-09-29T10:24:59.961Z,2.35
2018-09-29T10:27:35.563Z,2.60
2018-09-29T10:30:11.042Z,2.50
2018-09-29T10:32:46.605Z,2.98
2018-09-29T10:35:22.199Z,3.25
2018-09-29T10:37:58.055Z,2.70
2018-09-29T10:40:33.301Z,2.62
2018-09-29T10:43:08.740Z,2.15
2018-09-29T10:45:44.102Z,2.35
2018-09-29T10:48:19.637Z,2.22
2018-09-29T10:50:54.955Z,2.67
2018-09-29T10:53:30.443Z,1.87
2018-09-29T10:56:06.100Z,2.33
2018-09-29T10:58:41.561Z,2.02
2018-09-29T11:01:17.082Z,1.90
2018-09-29T11:03:52.553Z,1.70
2018-09-29T11:06:28.016Z,2.47
2018-09-29T11:09:04.537Z,2.22
2018-09-29T11:11:39.819Z,2.20
2018-09-29T11:14:15.253Z,1.80
2018-09-29T11:16:50.776Z,3.00
2018-09-29T11:19:26.764Z,2.67
2018-09-29T11:22:02.376Z,2.37
2018-09-29T11:24:37.916Z,1.90
2018-09-29T11:27:13.561Z,1.92
2018-09-29T11:29:49.123Z,1.80
2018-09-29T11:32:24.467Z,2.20
2018-09-29T11:35:00.074Z,1.82
2018-09-29T11:37:35.589Z,1.90
2018-09-29T11:40:11.504Z,2.35
2018-09-29T11:42:46.896Z,2.00
2018-09-29T11:45:22.354Z,2.35
2018-09-29T11:47:57.724Z,2.60
2018-09-29T11:50:33.285Z,3.15
2018-09-29T11:53:08.708Z,2.10
2018-09-29T11:55:44.244Z,2.05
2018-09-29T11:58:19.712Z,1.82
2018-09-29T12:00:55.133Z,2.08
2018-09-29T12:03:30.727Z,2.25
2018-09-29T12:06:06.515Z,1.90
2018-09-29T12:08:41.768Z,1.82
2018-09-29T12:11:17.228Z,1.98
2018-09-29T12:13:52.492Z,2.45
2018-09-29T12:16:27.841Z,2.35
2018-09-29T12:19:03.268Z,1.82
2018-09-29T12:21:38.905Z,1.80
2018-09-29T12:24:14.273Z,2.55
2018-09-29T12:26:49.717Z,2.47
2018-09-29T12:29:25.282Z,3.02
2018-09-29T12:32:01.026Z,2.15
2018-09-29T12:34:36.531Z,2.92
2018-09-29T12:37:12.374Z,3.25
2018-09-29T12:39:47.843Z,2.52
2018-09-29T12:42:23.306Z,1.95
2018-09-29T12:44:58.943Z,2.10
2018-09-29T12:47:34.438Z,2.25
2018-09-29T12:50:09.944Z,2.40
2018-09-29T12:52:45.325Z,2.50
2018-09-29T12:55:20.617Z,2.27
2018-09-29T12:57:56.165Z,2.40
2018-09-29T13:00:31.500Z,1.80
2018-09-29T13:03:07.193Z,1.98
2018-09-29T13:05:42.672Z,2.05
2018-09-29T13:08:18.143Z,2.40
2018-09-29T13:10:53.575Z,2.10
2018-09-29T13:13:28.925Z,2.15
2018-09-29T13:16:04.153Z,2.08
2018-09-29T13:18:39.551Z,1.80
2018-09-29T13:21:14.909Z,1.62
2018-09-29T13:23:50.305Z,1.65
2018-09-29T13:26:25.845Z,1.30
2018-09-29T13:29:01.628Z,1.50
2018-09-29T13:31:37.194Z,2.62
2018-09-29T13:34:12.864Z,1.95
2018-09-29T13:36:48.193Z,1.60
2018-09-29T13:39:23.581Z,1.40
2018-09-29T13:41:58.781Z,1.50
2018-09-29T13:44:34.309Z,1.85
2018-09-29T13:47:09.925Z,2.27
2018-09-29T13:49:45.376Z,1.70
2018-09-29T13:52:20.817Z,2.30
2018-09-29T13:54:56.381Z,1.70
2018-09-29T13:57:31.967Z,1.47
2018-09-29T14:00:07.679Z,1.62
2018-09-29T14:02:43.235Z,1.62
2018-09-29T14:05:19.088Z,2.12
2018-09-29T14:07:54.515Z,1.90
2018-09-29T14:10:30.097Z,1.42
2018-09-29T14:13:05.803Z,1.67
2018-09-29T14:15:41.200Z,1.72
2018-09-29T14:18:16.622Z,2.00
2018-09-29T14:20:58.793Z,1.60
2018-09-29T14:23:34.150Z,2.00
2018-09-29T14:26:09.818Z,1.85
2018-09-29T14:28:45.066Z,1.35
2018-09-29T14:31:20.585Z,1.72
2018-09-29T14:33:55.893Z,1.62
2018-09-29T14:36:31.322Z,1.92
2018-09-29T14:39:09.289Z,1.57
2018-09-29T14:41:44.733Z,2.40
2018-09-29T14:44:20.109Z,1.37
2018-09-29T14:46:55.622Z,1.52
2018-09-29T14:49:30.989Z,1.55
2018-09-29T14:52:06.519Z,1.60
2018-09-29T14:54:41.825Z,1.50
2018-09-29T14:57:17.505Z,2.00
2018-09-29T14:59:53.077Z,1.65
2018-09-29T15:02:28.536Z,1.50
2018-09-29T15:05:04.029Z,1.45
2018-09-29T15:07:39.654Z,2.67
2018-09-29T15:10:15.048Z,1.65
2018-09-29T15:12:50.778Z,2.10
2018-09-29T15:15:26.256Z,1.40
2018-09-29T15:18:01.814Z,1.55
2018-09-29T15:20:37.390Z,1.70
2018-09-29T15:23:12.832Z,1.57
2018-09-29T15:25:48.316Z,2.10
2018-09-29T15:28:23.766Z,1.90
2018-09-29T15:30:59.251Z,2.08
2018-09-29T15:33:34.633Z,1.90
2018-09-29T15:36:10.197Z,1.98
2018-09-29T15:38:45.754Z,1.60
2018-09-29T15:41:21.257Z,1.57
2018-09-29T15:43:56.784Z,1.77
2018-09-29T15:46:32.027Z,2.00
2018-09-29T15:49:07.596Z,2.12
2018-09-29T15:51:43.081Z,2.33
2018-09-29T15:54:18.733Z,2.20
2018-09-29T15:56:54.065Z,1.72
2018-09-29T15:59:29.443Z,1.75
2018-09-29T16:02:05.006Z,1.90
2018-09-29T16:04:40.557Z,1.92
2018-09-29T16:07:16.277Z,1.87
2018-09-29T16:09:51.848Z,1.85
2018-09-29T16:12:28.067Z,1.70
2018-09-29T16:15:03.659Z,2.10
2018-09-29T16:17:38.945Z,2.55
2018-09-29T16:20:14.568Z,2.65
2018-09-29T16:22:50.003Z,2.35
2018-09-29T16:25:25.565Z,2.70
2018-09-29T16:28:01.044Z,2.42
2018-09-29T16:30:36.481Z,2.25
2018-09-29T16:33:12.102Z,2.30
2018-09-29T16:35:47.593Z,2.90
2018-09-29T16:38:23.107Z,2.40
2018-09-29T16:40:58.512Z,2.47
2018-09-29T16:43:34.165Z,2.70
2018-09-29T16:46:09.861Z,2.80
2018-09-29T16:48:45.317Z,2.60
2018-09-29T16:51:20.873Z,2.72
2018-09-29T16:54:02.958Z,4.30
2018-09-29T16:56:38.541Z,5.10
2018-09-29T16:59:14.093Z,4.15
2018-09-29T17:01:49.707Z,5.50
2018-09-29T17:04:25.446Z,3.92
2018-09-29T17:07:00.834Z,5.17
2018-09-29T17:09:36.384Z,3.75
2018-09-29T17:12:11.789Z,3.17
2018-09-29T17:14:47.272Z,2.98
2018-09-29T17:17:22.855Z,4.25
2018-09-29T17:19:58.270Z,3.75
2018-09-29T17:22:33.804Z,6.03
2018-09-29T17:25:09.361Z,4.95
2018-09-29T17:27:44.729Z,2.50
2018-09-29T17:30:20.209Z,4.45
2018-09-29T17:32:55.789Z,4.03
2018-09-29T17:35:32.056Z,3.77
2018-09-29T17:38:07.398Z,3.27
2018-09-29T17:40:42.797Z,4.55
2018-09-29T17:43:18.454Z,5.53
2018-09-29T17:45:53.780Z,3.50
2018-09-29T17:48:29.695Z,3.75
2018-09-29T17:51:05.096Z,8.05
2018-09-29T17:53:41.020Z,6.50
2018-09-29T17:56:16.566Z,4.83
2018-09-29T17:58:52.173Z,6.30
2018-09-29T18:01:27.606Z,7.00
2018-09-29T18:04:03.178Z,4.15
2018-09-29T18:06:38.680Z,6.85
2018-09-29T18:09:14.369Z,5.25
2018-09-29T18:11:49.758Z,9.18
2018-09-29T18:14:25.405Z,13.35
2018-09-29T18:17:00.742Z,8.13
2018-09-29T18:19:36.326Z,12.10
2018-09-29T18:22:11.789Z,11.33
2018-09-29T18:24:47.176Z,9.88
2018-09-29T18:27:22.681Z,12.63
2018-09-29T18:29:58.402Z,9.68
2018-09-29T18:32:33.742Z,10.00
2018-09-29T18:35:09.160Z,4.92
2018-09-29T18:37:44.667Z,13.90
2018-09-29T18:40:20.238Z,4.40
2018-09-29T18:42:55.431Z,4.40
2018-09-29T18:45:30.890Z,4.67
2018-09-29T18:48:06.389Z,5.60
2018-09-29T18:50:42.017Z,7.03
2018-09-29T18:53:17.317Z,7.67
2018-09-29T18:55:53.022Z,4.80
2018-09-29T20:26:12.048Z,6.70
2018-09-29T20:28:47.617Z,7.42
2018-09-29T20:31:22.999Z,6.70
2018-09-29T20:33:58.596Z,7.40
2018-09-29T20:36:34.117Z,13.98
2018-09-29T20:39:12.492Z,4.10
2018-09-29T20:41:47.832Z,12.53
2018-09-29T20:44:23.300Z,11.15
2018-09-29T20:46:58.793Z,10.23
2018-09-29T20:49:34.598Z,5.28
2018-09-29T20:52:10.084Z,11.40
2018-09-29T20:54:45.657Z,14.23
2018-09-29T20:57:21.384Z,7.55
2018-09-29T20:59:56.906Z,6.03
2018-09-29T21:05:07.469Z,9.95
2018-09-29T21:12:52.804Z,13.25
2018-09-29T21:15:28.261Z,8.35
2018-09-29T21:18:03.905Z,10.88
2018-09-29T21:20:39.182Z,14.30
2018-09-29T21:23:14.617Z,4.28
2018-09-29T21:25:49.940Z,3.30
2018-09-29T21:28:25.470Z,7.53
2018-09-29T21:31:01.057Z,16.57
2018-09-29T21:33:36.489Z,19.05
2018-09-29T21:36:11.843Z,14.65
2018-09-29T21:38:47.223Z,17.85
2018-09-29T21:41:22.674Z,13.75
2018-09-29T21:43:58.080Z,19.92
2018-09-29T21:46:33.610Z,15.58
2018-09-29T21:49:08.914Z,7.45
2018-09-29T21:51:44.284Z,7.90
2018-09-29T21:54:19.737Z,9.95
2018-09-29T21:56:55.078Z,20.70
2018-09-29T21:59:30.476Z,18.98
2018-09-29T22:02:12.399Z,13.13
2018-09-29T22:04:48.026Z,19.77
2018-09-29T22:07:23.393Z,8.40
2018-09-29T22:09:58.921Z,8.65
2018-09-29T22:12:34.226Z,8.30
2018-09-29T22:15:09.689Z,7.62
2018-09-29T22:17:44.997Z,10.88
2018-09-29T22:20:20.620Z,21.82
2018-09-29T22:22:56.049Z,16.93
2018-09-29T22:25:31.700Z,17.12
2018-09-29T22:28:07.160Z,6.17
2018-09-29T22:30:42.584Z,13.35
2018-09-29T22:33:18.082Z,17.57
2018-09-29T22:35:53.555Z,23.20
2018-09-29T22:38:29.172Z,18.05
2018-09-29T22:41:04.486Z,21.23
2018-09-29T22:43:39.933Z,13.25
2018-09-29T22:46:15.629Z,13.98
2018-09-29T22:48:51.357Z,23.25
2018-09-29T22:51:26.814Z,15.50
2018-09-29T22:54:02.244Z,11.38
2018-09-29T22:56:37.958Z,11.50
2018-09-29T22:59:13.337Z,18.48
2018-09-29T23:01:48.807Z,9.50
2018-09-29T23:04:24.269Z,8.18
2018-09-29T23:06:59.836Z,14.68
2018-09-29T23:09:35.303Z,15.10
2018-09-29T23:12:10.818Z,15.75
2018-09-29T23:14:46.132Z,18.20
2018-09-29T23:17:21.573Z,10.00
2018-09-29T23:19:57.021Z,14.00
2018-09-29T23:22:32.429Z,10.20
2018-09-29T23:25:07.909Z,6.90
2018-09-29T23:27:43.625Z,11.18
2018-09-29T23:30:18.966Z,5.55
2018-09-29T23:32:54.433Z,13.10
2018-09-29T23:35:29.816Z,12.95
2018-09-29T23:38:05.466Z,10.15
2018-09-29T23:40:41.210Z,9.73
2018-09-29T23:43:16.674Z,13.00
2018-09-29T23:45:52.031Z,13.03
2018-09-29T23:48:27.631Z,8.15
2018-09-29T23:51:03.049Z,8.68
2018-09-29T23:53:38.765Z,7.17
2018-09-29T23:56:14.240Z,10.08
2018-09-29T23:58:49.716Z,12.23
